Aérodrome :
LOGIN :

S'inscrire | Disclaimer

   EN    FR    IT 

 










Légende :    VFR   VFR Marginal   IFR   IFR Intensif   IFR Très Intensif
Visi : 
Plafond : 
>= 8 km
>= 3000ft
5 à 8 km
1000 à 3000 ft
1500m à 5 km
500 à 1000 ft
800 à 1500m
200 à 500 ft
< 800m
< 200 ft
Symboles :   Orages  Brouillard  Fortes neiges  Fortes précipitations  Vent > 20 kt
SIGMETs :   Divers  Orages  Givrage  Turbulence  Onde Orograph.  Cendres Volcan.







- Altitude de l'aérodrome : 162 ft
- Code IATA : BOD
- Voir les cartes d'approche


LFBD - Bordeaux / Merignac

DERNIER METAR :
  • 140800Z AUTO 24009KT 9999 FEW030/// BKN064/// ///TCU 11/08 Q1013 BECMG BKN030

METARs EXPIRÉS :
  • 140730Z AUTO 24009KT 9999 FEW029 10/08 Q1013 NOSIG
  • 140700Z AUTO 24009KT 9999 FEW032 SCT068 11/08 Q1013 NOSIG
  • 140630Z AUTO 24009KT 9999 SCT029 SCT034 11/08 Q1013 NOSIG
  • 140600Z AUTO 24008KT CAVOK 11/08 Q1013 NOSIG
  • 140530Z AUTO 25007KT 9999 FEW034 BKN190 OVC210 11/09 Q1014 NOSIG

TAF TAF LFBD
Valide du 14 à 06h jusqu'au 15 à 12h UTC


140500Z 1406/1512 25015KT 9999 BKN030
PROB40 1414/1424 26020G35KT 2500 RA
TEMPO 1500/1504 3000 RA BKN010
TEMPO 1509/1512 30015G25KT SHRA BKN020TCU TX14/1412Z TN08/1506Z
ATIS : +33 5 57 92 81 04
Pas de NOTAMs connus pour ce terrain.



MET'MAP, la Météo Aéronautique d'un coup d'oeil ! - Copyright ORBIFLY Décembre 2007 - Disclaimer

ORBIFLY MET'MAP TEAM :

Programmation & Développement : Alexandra Zaïnal
Conception & Développement : Baudouin d'Aumeries
Co-Programmation & Développement : Marc-Olivier Méhu
Soutien technique & logistique : Manuel Goepfert

Contact : metmap@orbifly.com




SOURCES & CREDITS :

   NOAA